PGRO/ROP METAR and TAF weather

Enter ICAO airport designator
Station Type Date Time Source
PGRO METAR 2019/08/20 09:50 UTC NOAA

PGRO 200950Z 18012KT 7SM -RA BKN014 26/23 A2982 RMK WIND DATA ESTIMATED LAST


Station Type Date Time Source
PGRO Decoded METAR 2019/08/20 09:50 UTC NOAA

Rota Island, N. Mariana Is, Rota International Airport, GU, United States (PGRO) 14-11N 145-15E
Aug 20, 2019 - 05:50 AM EDT / 2019.08.20 0950 UTC
Wind: from the S (180 degrees) at 14 MPH (12 KT):0
Visibility: 7 mile(s):0
Sky conditions: mostly cloudy
Weather: light rain
Temperature: 78 F (26 C)
Dew Point: 73 F (23 C)
Relative Humidity: 83%
Pressure (altimeter): 29.82 in. Hg (1009 hPa)
ob: PGRO 200950Z 18012KT 7SM -RA BKN014 26/23 A2982 RMK WIND DATA ESTIMATED LAST
cycle: 10

Station Type Date Time Source
PGRO TAF 2019/08/20 06:36 UTC NOAA

TAF PGRO 200534Z 2006/2106 18010KT P6SM VCSH SCT015 SCT045

Example: see airport list